Time;durP1;ratioP1;P1;durP2;ratioP2;P2;SDS_P1;SDS_P2;PMS_P1;PMS_P2;Temp;Humidity;BMP_temperature;BMP_pressure;BME280_temperature;BME280_humidity;BME280_pressure;Samples;Min_cycle;Max_cycle;Signal;HPM_P1;HPM_P2
2024/04/20 00:02:20;;;;;;;;;;;;;;;;;;5484728;26;19935;-73
2024/04/20 00:04:49;;;;;;;;;;;;;;;;;;5483961;26;19934;-73
2024/04/20 00:07:18;;;;;;;;;;;;;;;;;;5486878;26;19928;-73
2024/04/20 00:09:47;;;;;;;;;;;;;;;;;;5483049;26;19939;-74
2024/04/20 00:12:16;;;;;;;;;;;;;;;;;;5474099;26;19928;-73
2024/04/20 00:14:44;;;;;;;;;;;;;;;;;;5476920;26;19932;-73
2024/04/20 00:17:13;;;;;;;;;;;;;;;;;;5477677;26;19935;-74
2024/04/20 00:19:42;;;;;;;;;;;;;;;;;;5480791;26;19928;-74
2024/04/20 00:22:10;;;;;;;;;;;;;;;;;;5479037;26;19943;-74
2024/04/20 00:24:39;;;;;;;;;;;;;;;;;;5484572;26;20377;-73
2024/04/20 00:27:08;;;;;;;;;;;;;;;;;;5478759;26;21021;-73
2024/04/20 00:29:37;;;;;;;;;;;;;;;;;;5469954;26;19928;-73
2024/04/20 00:32:05;;;;;;;;;;;;;;;;;;5482541;26;19928;-73
2024/04/20 00:34:34;;;;;;;;;;;;;;;;;;5483069;26;19928;-73
2024/04/20 00:37:03;;;;;;;;;;;;;;;;;;5480899;26;20383;-73
2024/04/20 00:39:32;;;;;;;;;;;;;;;;;;5465909;26;19935;-73
2024/04/20 00:42:00;;;;;;;;;;;;;;;;;;5469941;26;19939;-73
2024/04/20 00:44:29;;;;;;;;;;;;;;;;;;5472093;26;19928;-73
2024/04/20 00:47:01;;;;;;;;;;;;;;;;;;5482328;26;20398;-73
2024/04/20 00:49:29;;;;;;;;;;;;;;;;;;5481966;26;19995;-73
2024/04/20 00:51:58;;;;;;;;;;;;;;;;;;5460686;26;19937;-73
2024/04/20 00:54:24;;;;;;;;;;;;;;;;;;5481598;26;19928;-73
2024/04/20 00:56:53;;;;;;;;;;;;;;;;;;5461552;26;19928;-73
2024/04/20 00:59:22;;;;;;;;;;;;;;;;;;5465739;26;19928;-74
2024/04/20 01:01:50;;;;;;;;;;;;;;;;;;5482494;26;20477;-73
2024/04/20 01:04:19;;;;;;;;;;;;;;;;;;5474352;26;20355;-74
2024/04/20 01:06:48;;;;;;;;;;;;;;;;;;5479900;26;20364;-73
2024/04/20 01:09:16;;;;;;;;;;;;;;;;;;5479185;26;19928;-73
2024/04/20 01:11:45;;;;;;;;;;;;;;;;;;5480865;26;19969;-73
2024/04/20 01:14:14;;;;;;;;;;;;;;;;;;5460954;26;20445;-73
2024/04/20 01:16:43;;;;;;;;;;;;;;;;;;5472203;26;19944;-73
2024/04/20 01:19:11;;;;;;;;;;;;;;;;;;5477889;26;19939;-73
2024/04/20 01:21:40;;;;;;;;;;;;;;;;;;5465670;26;19935;-72
2024/04/20 01:24:09;;;;;;;;;;;;;;;;;;5481205;26;19928;-73
2024/04/20 01:26:37;;;;;;;;;;;;;;;;;;5481444;26;19928;-72
2024/04/20 01:29:06;;;;;;;;;;;;;;;;;;5480145;26;20267;-72
2024/04/20 01:31:35;;;;;;;;;;;;;;;;;;5473790;26;19940;-72
2024/04/20 01:34:04;;;;;;;;;;;;;;;;;;5472017;26;19928;-73
2024/04/20 01:36:32;;;;;;;;;;;;;;;;;;5477486;26;20394;-73
2024/04/20 01:39:01;;;;;;;;;;;;;;;;;;5483529;26;19935;-73
2024/04/20 01:41:30;;;;;;;;;;;;;;;;;;5482877;26;19928;-73
2024/04/20 01:43:59;;;;;;;;;;;;;;;;;;5481924;26;19940;-73
2024/04/20 01:46:27;;;;;;;;;;;;;;;;;;5474957;26;19935;-73
2024/04/20 01:48:56;;;;;;;;;;;;;;;;;;5474000;26;19928;-73
2024/04/20 01:51:25;;;;;;;;;;;;;;;;;;5477061;26;19951;-73
2024/04/20 01:53:53;;;;;;;;;;;;;;;;;;5480315;26;20378;-74
2024/04/20 01:56:22;;;;;;;;;;;;;;;;;;5478644;26;19935;-74
2024/04/20 01:58:48;;;;;;;;;;;;;;;;;;5468162;26;19928;-74
2024/04/20 02:01:17;;;;;;;;;;;;;;;;;;5482366;26;19960;-73
2024/04/20 02:03:45;;;;;;;;;;;;;;;;;;5470023;26;19929;-73
2024/04/20 02:06:14;;;;;;;;;;;;;;;;;;5477369;26;19935;-73
2024/04/20 02:08:45;;;;;;;;;;;;;;;;;;5481602;26;19935;-74
2024/04/20 02:11:14;;;;;;;;;;;;;;;;;;5480524;26;19940;-74
2024/04/20 02:13:42;;;;;;;;;;;;;;;;;;5480170;26;19935;-73
2024/04/20 02:16:11;;;;;;;;;;;;;;;;;;5458436;26;20263;-72
2024/04/20 02:18:40;;;;;;;;;;;;;;;;;;5445752;26;19936;-72
2024/04/20 02:21:09;;;;;;;;;;;;;;;;;;5477193;26;19928;-73
2024/04/20 02:23:38;;;;;;;;;;;;;;;;;;5481372;26;19934;-73
2024/04/20 02:26:07;;;;;;;;;;;;;;;;;;5462235;26;19928;-74
2024/04/20 02:28:36;;;;;;;;;;;;;;;;;;5465322;26;20379;-73
2024/04/20 02:31:04;;;;;;;;;;;;;;;;;;5483535;26;19928;-73
2024/04/20 02:33:34;;;;;;;;;;;;;;;;;;5464180;26;19932;-73
2024/04/20 02:36:02;;;;;;;;;;;;;;;;;;5483870;26;19928;-75
2024/04/20 02:38:31;;;;;;;;;;;;;;;;;;5476520;26;19927;-73
2024/04/20 02:41:00;;;;;;;;;;;;;;;;;;5483559;26;19932;-74
2024/04/20 02:43:28;;;;;;;;;;;;;;;;;;5481567;26;19928;-74
2024/04/20 02:45:57;;;;;;;;;;;;;;;;;;5478497;26;20283;-73
2024/04/20 02:48:26;;;;;;;;;;;;;;;;;;5465115;26;20422;-73
2024/04/20 02:50:55;;;;;;;;;;;;;;;;;;5477068;26;19932;-73
2024/04/20 02:53:23;;;;;;;;;;;;;;;;;;5480803;26;19928;-74
2024/04/20 02:55:52;;;;;;;;;;;;;;;;;;5479898;26;19935;-73
2024/04/20 02:58:21;;;;;;;;;;;;;;;;;;5470672;26;19939;-73
2024/04/20 03:00:49;;;;;;;;;;;;;;;;;;5483285;26;20327;-73
2024/04/20 03:03:18;;;;;;;;;;;;;;;;;;5482018;26;20271;-73
2024/04/20 03:05:47;;;;;;;;;;;;;;;;;;5484123;26;20398;-73
2024/04/20 03:08:16;;;;;;;;;;;;;;;;;;5486057;26;19934;-72
2024/04/20 03:10:44;;;;;;;;;;;;;;;;;;5486743;26;19934;-73
2024/04/20 03:13:13;;;;;;;;;;;;;;;;;;5486198;26;19928;-72
2024/04/20 03:15:42;;;;;;;;;;;;;;;;;;5480598;26;19932;-73
2024/04/20 03:18:11;;;;;;;;;;;;;;;;;;5487630;26;19928;-73
2024/04/20 03:20:39;;;;;;;;;;;;;;;;;;5487125;26;19928;-72
2024/04/20 03:23:08;;;;;;;;;;;;;;;;;;5486023;26;19928;-72
2024/04/20 03:25:37;;;;;;;;;;;;;;;;;;5470049;26;19928;-73
2024/04/20 03:28:06;;;;;;;;;;;;;;;;;;5482647;26;19992;-73
2024/04/20 03:30:35;;;;;;;;;;;;;;;;;;5487633;26;19936;-73
2024/04/20 03:33:03;;;;;;;;;;;;;;;;;;5480543;26;19928;-74
2024/04/20 03:35:32;;;;;;;;;;;;;;;;;;5485144;26;20103;-74
2024/04/20 03:38:01;;;;;;;;;;;;;;;;;;5470335;26;19929;-73
2024/04/20 03:40:30;;;;;;;;;;;;;;;;;;5478738;26;19947;-73
2024/04/20 03:42:59;;;;;;;;;;;;;;;;;;5461701;26;19927;-74
2024/04/20 03:45:28;;;;;;;;;;;;;;;;;;5481413;26;19927;-74
2024/04/20 03:47:56;;;;;;;;;;;;;;;;;;5476327;26;19942;-73
2024/04/20 03:50:26;;;;;;;;;;;;;;;;;;5468920;26;19997;-74
2024/04/20 03:52:55;;;;;;;;;;;;;;;;;;5473744;26;19936;-74
2024/04/20 03:55:23;;;;;;;;;;;;;;;;;;5467843;26;20479;-73
2024/04/20 03:57:52;;;;;;;;;;;;;;;;;;5466265;26;20340;-72
2024/04/20 04:00:21;;;;;;;;;;;;;;;;;;5476363;26;19936;-74
2024/04/20 04:02:50;;;;;;;;;;;;;;;;;;5470760;26;20007;-74
2024/04/20 04:05:19;;;;;;;;;;;;;;;;;;5470407;26;19957;-73
2024/04/20 04:07:47;;;;;;;;;;;;;;;;;;5469648;26;19929;-72
2024/04/20 04:10:16;;;;;;;;;;;;;;;;;;5466967;26;19928;-72
2024/04/20 04:12:45;;;;;;;;;;;;;;;;;;5471490;26;19946;-72
2024/04/20 04:15:13;;;;;;;;;;;;;;;;;;5465078;26;19928;-72
2024/04/20 04:17:42;;;;;;;;;;;;;;;;;;5471615;26;19928;-72
2024/04/20 04:20:11;;;;;;;;;;;;;;;;;;5463099;26;20003;-73
2024/04/20 04:22:40;;;;;;;;;;;;;;;;;;5467464;26;20148;-73
2024/04/20 04:25:08;;;;;;;;;;;;;;;;;;5471009;26;20371;-72
2024/04/20 04:27:37;;;;;;;;;;;;;;;;;;5470154;26;20370;-73
2024/04/20 04:30:06;;;;;;;;;;;;;;;;;;5465892;26;19939;-72
2024/04/20 04:32:34;;;;;;;;;;;;;;;;;;5471299;26;20363;-72
2024/04/20 04:35:03;;;;;;;;;;;;;;;;;;5470548;26;20534;-73
2024/04/20 04:37:32;;;;;;;;;;;;;;;;;;5465894;26;19932;-72
2024/04/20 04:40:02;;;;;;;;;;;;;;;;;;5464723;26;23679;-74
2024/04/20 04:42:31;;;;;;;;;;;;;;;;;;5469394;26;19928;-73
2024/04/20 04:45:00;;;;;;;;;;;;;;;;;;5467331;26;19929;-77
2024/04/20 04:47:29;;;;;;;;;;;;;;;;;;5468561;26;19935;-79
2024/04/20 04:49:57;;;;;;;;;;;;;;;;;;5472432;26;19928;-78
2024/04/20 04:52:26;;;;;;;;;;;;;;;;;;5469326;26;19983;-80
2024/04/20 04:54:55;;;;;;;;;;;;;;;;;;5472382;26;19934;-80
2024/04/20 04:57:23;;;;;;;;;;;;;;;;;;5469524;26;19928;-80
2024/04/20 04:59:52;;;;;;;;;;;;;;;;;;5474853;26;19932;-80
2024/04/20 05:02:21;;;;;;;;;;;;;;;;;;5476447;26;19939;-78
2024/04/20 05:04:50;;;;;;;;;;;;;;;;;;5481194;26;19935;-80
2024/04/20 05:07:18;;;;;;;;;;;;;;;;;;5482881;26;20346;-79
2024/04/20 05:09:47;;;;;;;;;;;;;;;;;;5479950;26;19928;-79
2024/04/20 05:12:16;;;;;;;;;;;;;;;;;;5483695;26;20243;-80
2024/04/20 05:14:44;;;;;;;;;;;;;;;;;;5484723;26;19935;-79
2024/04/20 05:17:13;;;;;;;;;;;;;;;;;;5475402;26;19928;-78
2024/04/20 05:19:42;;;;;;;;;;;;;;;;;;5481795;26;19928;-74
2024/04/20 05:22:10;;;;;;;;;;;;;;;;;;5478482;26;20059;-74
2024/04/20 05:24:39;;;;;;;;;;;;;;;;;;5477962;26;19935;-78
2024/04/20 05:27:08;;;;;;;;;;;;;;;;;;5480878;26;19931;-78
2024/04/20 05:29:37;;;;;;;;;;;;;;;;;;5479730;26;19935;-80
2024/04/20 05:32:05;;;;;;;;;;;;;;;;;;5472732;26;20013;-79
2024/04/20 05:34:34;;;;;;;;;;;;;;;;;;5477899;26;19927;-79
2024/04/20 05:37:03;;;;;;;;;;;;;;;;;;5478299;26;19935;-79
2024/04/20 05:39:33;;;;;;;;;;;;;;;;;;5480871;26;19928;-77
2024/04/20 05:42:01;;;;;;;;;;;;;;;;;;5482580;26;19935;-85
2024/04/20 05:44:30;;;;;;;;;;;;;;;;;;5481279;26;19934;-75
2024/04/20 05:46:59;;;;;;;;;;;;;;;;;;5486576;26;19931;-81
2024/04/20 05:49:27;;;;;;;;;;;;;;;;;;5483760;26;19928;-79
2024/04/20 05:51:56;;;;;;;;;;;;;;;;;;5480660;26;19942;-78
2024/04/20 05:54:25;;;;;;;;;;;;;;;;;;5476150;26;19936;-76
2024/04/20 05:56:54;;;;;;;;;;;;;;;;;;5484282;26;19927;-77
2024/04/20 05:59:22;;;;;;;;;;;;;;;;;;5488179;26;19940;-79
2024/04/20 06:01:51;;;;;;;;;;;;;;;;;;5477027;26;19928;-79
2024/04/20 06:04:20;;;;;;;;;;;;;;;;;;5473830;26;19936;-79
2024/04/20 06:06:48;;;;;;;;;;;;;;;;;;5474657;26;20228;-74
2024/04/20 06:09:17;;;;;;;;;;;;;;;;;;5472441;26;19936;-71
2024/04/20 06:11:46;;;;;;;;;;;;;;;;;;5475267;26;20010;-72
2024/04/20 06:14:15;;;;;;;;;;;;;;;;;;5473147;26;20342;-73
2024/04/20 06:16:43;;;;;;;;;;;;;;;;;;5477041;26;19928;-73
2024/04/20 06:19:12;;;;;;;;;;;;;;;;;;5469472;26;19932;-73
2024/04/20 06:21:41;;;;;;;;;;;;;;;;;;5472977;26;19928;-73
2024/04/20 06:24:09;;;;;;;;;;;;;;;;;;5471293;26;19928;-73
2024/04/20 06:26:38;;;;;;;;;;;;;;;;;;5473083;26;20427;-72
2024/04/20 06:29:07;;;;;;;;;;;;;;;;;;5466058;26;20323;-72
2024/04/20 06:31:35;;;;;;;;;;;;;;;;;;5466780;26;19929;-74
2024/04/20 06:34:04;;;;;;;;;;;;;;;;;;5472476;26;19927;-74
2024/04/20 06:36:33;;;;;;;;;;;;;;;;;;5478588;26;20352;-74
2024/04/20 06:39:02;;;;;;;;;;;;;;;;;;5468843;26;19928;-73
2024/04/20 06:41:30;;;;;;;;;;;;;;;;;;5475290;26;19939;-74
2024/04/20 06:43:59;;;;;;;;;;;;;;;;;;5480846;26;19928;-74
2024/04/20 06:46:28;;;;;;;;;;;;;;;;;;5480197;26;19969;-74
2024/04/20 06:48:57;;;;;;;;;;;;;;;;;;5465757;26;20603;-79
2024/04/20 06:51:26;;;;;;;;;;;;;;;;;;5475228;26;19928;-74
2024/04/20 06:53:54;;;;;;;;;;;;;;;;;;5470477;26;20304;-73
2024/04/20 06:56:23;;;;;;;;;;;;;;;;;;5476138;26;20302;-73
2024/04/20 06:58:52;;;;;;;;;;;;;;;;;;5479926;26;20374;-72
2024/04/20 07:01:21;;;;;;;;;;;;;;;;;;5472285;26;19935;-72
2024/04/20 07:03:49;;;;;;;;;;;;;;;;;;5480548;26;19928;-73
2024/04/20 07:06:18;;;;;;;;;;;;;;;;;;5476466;26;19928;-72
2024/04/20 07:08:47;;;;;;;;;;;;;;;;;;5481971;26;19934;-72
2024/04/20 07:11:15;;;;;;;;;;;;;;;;;;5457097;26;20404;-76
2024/04/20 07:13:44;;;;;;;;;;;;;;;;;;5477527;26;19928;-75
2024/04/20 07:16:13;;;;;;;;;;;;;;;;;;5453585;26;19935;-73
2024/04/20 07:18:44;;;;;;;;;;;;;;;;;;5481251;26;19928;-72
2024/04/20 07:21:12;;;;;;;;;;;;;;;;;;5481873;26;19928;-73
2024/04/20 07:23:41;;;;;;;;;;;;;;;;;;5482201;26;19935;-72
2024/04/20 07:26:10;;;;;;;;;;;;;;;;;;5475890;26;19932;-72
2024/04/20 07:28:38;;;;;;;;;;;;;;;;;;5481199;26;20394;-73
2024/04/20 07:31:07;;;;;;;;;;;;;;;;;;5477206;26;20259;-73
2024/04/20 07:33:36;;;;;;;;;;;;;;;;;;5480775;26;20359;-73
2024/04/20 07:36:05;;;;;;;;;;;;;;;;;;5480121;26;20371;-73
2024/04/20 07:38:33;;;;;;;;;;;;;;;;;;5480980;26;19934;-73
2024/04/20 07:41:02;;;;;;;;;;;;;;;;;;5465780;26;19928;-74
2024/04/20 07:43:31;;;;;;;;;;;;;;;;;;5480309;26;19935;-74
2024/04/20 07:45:59;;;;;;;;;;;;;;;;;;5481102;26;20428;-73
2024/04/20 07:48:28;;;;;;;;;;;;;;;;;;5469684;26;20375;-72
2024/04/20 07:50:57;;;;;;;;;;;;;;;;;;5468774;26;19928;-68
2024/04/20 07:53:25;;;;;;;;;;;;;;;;;;5467885;26;20349;-68
2024/04/20 07:55:55;;;;;;;;;;;;;;;;;;5468848;26;20552;-69
2024/04/20 07:58:23;;;;;;;;;;;;;;;;;;5469281;26;19968;-69
2024/04/20 08:00:52;;;;;;;;;;;;;;;;;;5468611;26;19928;-69
2024/04/20 08:03:21;;;;;;;;;;;;;;;;;;5471565;26;19928;-69
2024/04/20 08:05:50;;;;;;;;;;;;;;;;;;5457573;26;20380;-69
2024/04/20 08:08:18;;;;;;;;;;;;;;;;;;5462024;26;19929;-70
2024/04/20 08:10:47;;;;;;;;;;;;;;;;;;5455438;26;19936;-68
2024/04/20 08:13:16;;;;;;;;;;;;;;;;;;5469796;26;19936;-69
2024/04/20 08:15:45;;;;;;;;;;;;;;;;;;5467289;26;19959;-69
2024/04/20 08:18:14;;;;;;;;;;;;;;;;;;5465115;26;19928;-69
2024/04/20 08:20:42;;;;;;;;;;;;;;;;;;5469320;26;19947;-68
2024/04/20 08:23:12;;;;;;;;;;;;;;;;;;5468267;26;20420;-69
2024/04/20 08:25:40;;;;;;;;;;;;;;;;;;5464889;26;19928;-68
2024/04/20 08:28:09;;;;;;;;;;;;;;;;;;5459063;26;19928;-69
2024/04/20 08:30:38;;;;;;;;;;;;;;;;;;5468968;26;19935;-69
2024/04/20 08:33:06;;;;;;;;;;;;;;;;;;5470768;26;19928;-70
2024/04/20 08:35:35;;;;;;;;;;;;;;;;;;5467650;26;20481;-69
2024/04/20 08:38:04;;;;;;;;;;;;;;;;;;5444674;26;20472;-68
2024/04/20 08:40:34;;;;;;;;;;;;;;;;;;5478682;26;19928;-68
2024/04/20 08:43:03;;;;;;;;;;;;;;;;;;5467585;26;19929;-68
2024/04/20 08:45:32;;;;;;;;;;;;;;;;;;5473072;26;19959;-68
2024/04/20 08:48:01;;;;;;;;;;;;;;;;;;5479891;26;19928;-69
2024/04/20 08:50:29;;;;;;;;;;;;;;;;;;5479606;26;19940;-68
2024/04/20 08:52:58;;;;;;;;;;;;;;;;;;5467564;26;20041;-68
2024/04/20 08:55:27;;;;;;;;;;;;;;;;;;5468139;26;19928;-69
2024/04/20 08:57:55;;;;;;;;;;;;;;;;;;5470222;26;19928;-68
2024/04/20 09:00:24;;;;;;;;;;;;;;;;;;5466753;26;19935;-68
2024/04/20 09:02:50;;;;;;;;;;;;;;;;;;5474622;26;19928;-68
2024/04/20 09:05:19;;;;;;;;;;;;;;;;;;5463801;26;19932;-67
2024/04/20 09:07:48;;;;;;;;;;;;;;;;;;5457421;26;19928;-68
2024/04/20 09:10:16;;;;;;;;;;;;;;;;;;5468004;26;19939;-73
2024/04/20 09:12:45;;;;;;;;;;;;;;;;;;5481462;26;19931;-73
2024/04/20 09:15:14;;;;;;;;;;;;;;;;;;5463803;26;20359;-74
2024/04/20 09:17:42;;;;;;;;;;;;;;;;;;5468677;26;19935;-72
2024/04/20 09:20:11;;;;;;;;;;;;;;;;;;5481953;26;19935;-72
2024/04/20 09:22:40;;;;;;;;;;;;;;;;;;5470403;26;19929;-72
2024/04/20 09:25:09;;;;;;;;;;;;;;;;;;5462351;26;20890;-73
2024/04/20 09:27:38;;;;;;;;;;;;;;;;;;5445735;26;19983;-73
2024/04/20 09:30:07;;;;;;;;;;;;;;;;;;5465856;26;20351;-72
2024/04/20 09:32:38;;;;;;;;;;;;;;;;;;5481363;26;19939;-72
2024/04/20 09:35:05;;;;;;;;;;;;;;;;;;5481708;26;19928;-73
2024/04/20 09:37:33;;;;;;;;;;;;;;;;;;5471418;26;20447;-72
2024/04/20 09:40:02;;;;;;;;;;;;;;;;;;5475869;26;19928;-72
2024/04/20 09:42:31;;;;;;;;;;;;;;;;;;5474038;26;20325;-71
2024/04/20 09:45:00;;;;;;;;;;;;;;;;;;5481307;26;19935;-72
2024/04/20 09:47:28;;;;;;;;;;;;;;;;;;5465310;26;19929;-71
2024/04/20 09:49:57;;;;;;;;;;;;;;;;;;5444675;26;19928;-72
2024/04/20 09:52:26;;;;;;;;;;;;;;;;;;5469935;26;19928;-73
2024/04/20 09:54:54;;;;;;;;;;;;;;;;;;5476766;26;19928;-72
2024/04/20 09:57:23;;;;;;;;;;;;;;;;;;5462328;26;19954;-72
2024/04/20 09:59:52;;;;;;;;;;;;;;;;;;5462287;26;19928;-73
2024/04/20 10:02:20;;;;;;;;;;;;;;;;;;5479054;26;19928;-72
2024/04/20 10:04:49;;;;;;;;;;;;;;;;;;5473951;26;19935;-72
2024/04/20 10:07:18;;;;;;;;;;;;;;;;;;5476995;26;19928;-73
2024/04/20 10:09:46;;;;;;;;;;;;;;;;;;5478621;26;20363;-73
2024/04/20 10:12:15;;;;;;;;;;;;;;;;;;5479341;26;19951;-73
2024/04/20 10:14:45;;;;;;;;;;;;;;;;;;5472941;26;20490;-73
2024/04/20 10:17:14;;;;;;;;;;;;;;;;;;5469483;26;21647;-75
2024/04/20 10:19:43;;;;;;;;;;;;;;;;;;5478574;26;20404;-74
2024/04/20 10:22:09;;;;;;;;;;;;;;;;;;5480186;26;19939;-73
2024/04/20 10:24:38;;;;;;;;;;;;;;;;;;5464452;26;20410;-73
2024/04/20 10:27:06;;;;;;;;;;;;;;;;;;5467965;26;19928;-73
2024/04/20 10:29:36;;;;;;;;;;;;;;;;;;5470118;26;20375;-73
2024/04/20 10:32:06;;;;;;;;;;;;;;;;;;5471968;26;20331;-73
2024/04/20 10:34:35;;;;;;;;;;;;;;;;;;5478038;26;19928;-73
2024/04/20 10:37:08;;;;;;;;;;;;;;;;;;5475548;26;19928;-73
2024/04/20 10:39:38;;;;;;;;;;;;;;;;;;5477751;26;20025;-78
2024/04/20 10:42:04;;;;;;;;;;;;;;;;;;5479962;26;19935;-73
2024/04/20 10:44:32;;;;;;;;;;;;;;;;;;5479241;26;19932;-74
2024/04/20 10:47:01;;;;;;;;;;;;;;;;;;5479648;26;19936;-72
2024/04/20 10:49:30;;;;;;;;;;;;;;;;;;5479106;26;19935;-72
2024/04/20 10:51:58;;;;;;;;;;;;;;;;;;5473013;26;19928;-72
2024/04/20 10:54:27;;;;;;;;;;;;;;;;;;5468568;26;19935;-71
2024/04/20 10:56:56;;;;;;;;;;;;;;;;;;5472061;26;19943;-72
2024/04/20 10:59:25;;;;;;;;;;;;;;;;;;5470981;26;19940;-71
2024/04/20 11:01:56;;;;;;;;;;;;;;;;;;5464153;26;19928;-72
2024/04/20 11:04:25;;;;;;;;;;;;;;;;;;5475073;26;20323;-71
2024/04/20 11:06:57;;;;;;;;;;;;;;;;;;5465522;26;19938;-72
2024/04/20 11:09:26;;;;;;;;;;;;;;;;;;5475126;26;19935;-71
2024/04/20 11:11:54;;;;;;;;;;;;;;;;;;5468513;26;19938;-70
2024/04/20 11:14:23;;;;;;;;;;;;;;;;;;5472762;26;19947;-71
2024/04/20 11:16:52;;;;;;;;;;;;;;;;;;5453261;26;20371;-71
2024/04/20 11:19:20;;;;;;;;;;;;;;;;;;5477929;26;19960;-71
2024/04/20 11:21:49;;;;;;;;;;;;;;;;;;5479625;26;19928;-71
2024/04/20 11:24:18;;;;;;;;;;;;;;;;;;5470280;26;19929;-72
2024/04/20 11:26:51;;;;;;;;;;;;;;;;;;5460862;26;20493;-72
2024/04/20 11:29:20;;;;;;;;;;;;;;;;;;5463407;26;20478;-72
2024/04/20 11:31:49;;;;;;;;;;;;;;;;;;5471267;26;19943;-71
2024/04/20 11:34:18;;;;;;;;;;;;;;;;;;5480430;26;19935;-72
2024/04/20 11:36:46;;;;;;;;;;;;;;;;;;5481802;26;20267;-70
2024/04/20 11:39:15;;;;;;;;;;;;;;;;;;5463984;26;20019;-71
2024/04/20 11:41:44;;;;;;;;;;;;;;;;;;5454595;26;19936;-71
2024/04/20 11:44:13;;;;;;;;;;;;;;;;;;5474374;26;19927;-71
2024/04/20 11:46:41;;;;;;;;;;;;;;;;;;5480556;26;20271;-72
2024/04/20 11:49:10;;;;;;;;;;;;;;;;;;5480505;26;20264;-72
2024/04/20 11:54:25;;;;;;;;;;;;;;;;;;5477816;26;19931;-72
2024/04/20 11:56:54;;;;;;;;;;;;;;;;;;5447493;26;20497;-72
2024/04/20 11:59:23;;;;;;;;;;;;;;;;;;5473597;26;19935;-72
2024/04/20 12:01:52;;;;;;;;;;;;;;;;;;5483238;26;19963;-73
2024/04/20 12:04:21;;;;;;;;;;;;;;;;;;5478564;26;19935;-71
2024/04/20 12:06:49;;;;;;;;;;;;;;;;;;5482902;26;19928;-71
2024/04/20 12:09:19;;;;;;;;;;;;;;;;;;5481737;26;20045;-72
2024/04/20 12:11:48;;;;;;;;;;;;;;;;;;5481794;26;19935;-72
2024/04/20 12:14:17;;;;;;;;;;;;;;;;;;5480531;26;19935;-72
2024/04/20 12:16:45;;;;;;;;;;;;;;;;;;5461493;26;20329;-71
2024/04/20 12:19:14;;;;;;;;;;;;;;;;;;5481631;26;19989;-72
2024/04/20 12:21:43;;;;;;;;;;;;;;;;;;5477037;26;19928;-72
2024/04/20 12:24:13;;;;;;;;;;;;;;;;;;5477648;26;19927;-72
2024/04/20 12:26:42;;;;;;;;;;;;;;;;;;5472415;26;20037;-72
2024/04/20 12:29:10;;;;;;;;;;;;;;;;;;5451853;26;19931;-72
2024/04/20 12:31:39;;;;;;;;;;;;;;;;;;5460638;26;19981;-71
2024/04/20 12:34:09;;;;;;;;;;;;;;;;;;5475294;26;19928;-72
2024/04/20 12:36:40;;;;;;;;;;;;;;;;;;5472366;26;19929;-72
2024/04/20 12:39:10;;;;;;;;;;;;;;;;;;5448064;26;20432;-72
2024/04/20 12:41:38;;;;;;;;;;;;;;;;;;5467018;26;20000;-72
2024/04/20 12:44:07;;;;;;;;;;;;;;;;;;5477177;26;19947;-72
2024/04/20 12:46:36;;;;;;;;;;;;;;;;;;5457329;26;19935;-72
2024/04/20 12:49:05;;;;;;;;;;;;;;;;;;5479098;26;19936;-72
2024/04/20 12:51:33;;;;;;;;;;;;;;;;;;5467277;26;19928;-72
2024/04/20 12:54:02;;;;;;;;;;;;;;;;;;5472463;26;20330;-71
2024/04/20 12:56:31;;;;;;;;;;;;;;;;;;5476188;26;19943;-72
2024/04/20 12:58:59;;;;;;;;;;;;;;;;;;5466817;26;19947;-73
2024/04/20 13:01:28;;;;;;;;;;;;;;;;;;5480463;26;20390;-71
2024/04/20 13:03:57;;;;;;;;;;;;;;;;;;5479197;26;19935;-72
2024/04/20 13:06:27;;;;;;;;;;;;;;;;;;5470728;26;19935;-72
2024/04/20 13:08:55;;;;;;;;;;;;;;;;;;5474531;26;19935;-72
2024/04/20 13:11:24;;;;;;;;;;;;;;;;;;5480280;26;19928;-72
2024/04/20 13:13:53;;;;;;;;;;;;;;;;;;5481355;26;19927;-72
2024/04/20 13:16:22;;;;;;;;;;;;;;;;;;5472613;26;19935;-72
2024/04/20 13:18:51;;;;;;;;;;;;;;;;;;5481037;26;20451;-72
2024/04/20 13:21:19;;;;;;;;;;;;;;;;;;5481271;26;19935;-71
2024/04/20 13:23:48;;;;;;;;;;;;;;;;;;5473384;26;19932;-73
2024/04/20 13:26:18;;;;;;;;;;;;;;;;;;5482344;26;20455;-72
2024/04/20 13:28:46;;;;;;;;;;;;;;;;;;5471140;26;19929;-72
2024/04/20 13:31:15;;;;;;;;;;;;;;;;;;5481563;26;19928;-72
2024/04/20 13:33:44;;;;;;;;;;;;;;;;;;5456705;26;19935;-72
2024/04/20 13:36:12;;;;;;;;;;;;;;;;;;5466404;26;19935;-73
2024/04/20 13:38:41;;;;;;;;;;;;;;;;;;5472918;26;19928;-73
2024/04/20 13:41:10;;;;;;;;;;;;;;;;;;5479720;26;19928;-72
2024/04/20 13:43:39;;;;;;;;;;;;;;;;;;5480989;26;19938;-72
2024/04/20 13:46:10;;;;;;;;;;;;;;;;;;5480944;26;19969;-71
2024/04/20 13:48:38;;;;;;;;;;;;;;;;;;5481202;26;19935;-74
2024/04/20 13:51:07;;;;;;;;;;;;;;;;;;5480214;26;19939;-72
2024/04/20 13:53:36;;;;;;;;;;;;;;;;;;5481944;26;19935;-73
2024/04/20 13:56:05;;;;;;;;;;;;;;;;;;5477210;26;19931;-72
2024/04/20 13:58:33;;;;;;;;;;;;;;;;;;5447591;26;19943;-73
2024/04/20 14:01:02;;;;;;;;;;;;;;;;;;5480496;26;19940;-72
2024/04/20 14:03:31;;;;;;;;;;;;;;;;;;5482213;26;19928;-72
2024/04/20 14:06:00;;;;;;;;;;;;;;;;;;5480448;26;19928;-72
2024/04/20 14:08:28;;;;;;;;;;;;;;;;;;5473233;26;19940;-72
2024/04/20 14:10:54;;;;;;;;;;;;;;;;;;5481585;26;20080;-72
2024/04/20 14:13:23;;;;;;;;;;;;;;;;;;5471261;26;19928;-73
2024/04/20 14:15:53;;;;;;;;;;;;;;;;;;5475952;26;19940;-73
2024/04/20 14:18:21;;;;;;;;;;;;;;;;;;5483928;26;20057;-70
2024/04/20 14:20:51;;;;;;;;;;;;;;;;;;5499011;26;19935;-73
2024/04/20 14:23:20;;;;;;;;;;;;;;;;;;5465166;26;19928;-73
2024/04/20 14:25:49;;;;;;;;;;;;;;;;;;5455132;26;19996;-72
2024/04/20 14:28:20;;;;;;;;;;;;;;;;;;5445899;26;19936;-72
2024/04/20 14:30:49;;;;;;;;;;;;;;;;;;5456770;26;19928;-72
2024/04/20 14:33:17;;;;;;;;;;;;;;;;;;5462642;26;19928;-73
2024/04/20 14:35:46;;;;;;;;;;;;;;;;;;5456665;26;20338;-72
2024/04/20 14:38:15;;;;;;;;;;;;;;;;;;5474227;26;19928;-73
2024/04/20 14:40:44;;;;;;;;;;;;;;;;;;5459305;26;20041;-72
2024/04/20 14:43:12;;;;;;;;;;;;;;;;;;5465338;26;20359;-72
2024/04/20 14:45:41;;;;;;;;;;;;;;;;;;5475435;26;19928;-73
2024/04/20 14:48:10;;;;;;;;;;;;;;;;;;5464589;26;20432;-72
2024/04/20 14:50:38;;;;;;;;;;;;;;;;;;5475399;26;19928;-73
2024/04/20 14:53:07;;;;;;;;;;;;;;;;;;5468609;26;19928;-72
2024/04/20 14:55:36;;;;;;;;;;;;;;;;;;5474617;26;19928;-72
2024/04/20 14:58:05;;;;;;;;;;;;;;;;;;5470365;26;20382;-73
2024/04/20 15:00:33;;;;;;;;;;;;;;;;;;5446560;26;19932;-73
2024/04/20 15:03:02;;;;;;;;;;;;;;;;;;5463386;26;19928;-72
2024/04/20 15:05:31;;;;;;;;;;;;;;;;;;5474711;26;20371;-73
2024/04/20 15:07:59;;;;;;;;;;;;;;;;;;5470955;26;19935;-72
2024/04/20 15:10:28;;;;;;;;;;;;;;;;;;5475552;26;20338;-73
2024/04/20 15:12:57;;;;;;;;;;;;;;;;;;5469996;26;19928;-72
2024/04/20 15:15:25;;;;;;;;;;;;;;;;;;5499173;25;19928;-73
2024/04/20 15:17:54;;;;;;;;;;;;;;;;;;5481147;26;20481;-72
2024/04/20 15:20:23;;;;;;;;;;;;;;;;;;5451340;26;20403;-72
2024/04/20 15:22:51;;;;;;;;;;;;;;;;;;5474145;26;19935;-73
2024/04/20 15:25:20;;;;;;;;;;;;;;;;;;5478361;26;19928;-72
2024/04/20 15:27:49;;;;;;;;;;;;;;;;;;5458655;26;19935;-73
2024/04/20 15:30:17;;;;;;;;;;;;;;;;;;5464275;26;20271;-72
2024/04/20 15:32:46;;;;;;;;;;;;;;;;;;5471735;26;19936;-72
2024/04/20 15:35:16;;;;;;;;;;;;;;;;;;5481681;26;19928;-72
2024/04/20 15:37:45;;;;;;;;;;;;;;;;;;5480592;26;19936;-73
2024/04/20 15:40:11;;;;;;;;;;;;;;;;;;5461995;26;19928;-73
2024/04/20 15:42:39;;;;;;;;;;;;;;;;;;5475897;26;20061;-73
2024/04/20 15:45:08;;;;;;;;;;;;;;;;;;5472041;26;19935;-70
2024/04/20 15:47:37;;;;;;;;;;;;;;;;;;5455596;26;19932;-70
2024/04/20 15:50:05;;;;;;;;;;;;;;;;;;5473583;26;19940;-72
2024/04/20 15:52:34;;;;;;;;;;;;;;;;;;5476102;26;19932;-72
2024/04/20 15:55:03;;;;;;;;;;;;;;;;;;5478738;26;19928;-71
2024/04/20 15:57:29;;;;;;;;;;;;;;;;;;5477691;26;19928;-71
2024/04/20 15:59:58;;;;;;;;;;;;;;;;;;5464352;26;19939;-71
2024/04/20 16:02:26;;;;;;;;;;;;;;;;;;5478136;26;19935;-72
2024/04/20 16:04:55;;;;;;;;;;;;;;;;;;5469525;26;19945;-73
2024/04/20 16:07:24;;;;;;;;;;;;;;;;;;5471122;26;20370;-72
2024/04/20 16:09:52;;;;;;;;;;;;;;;;;;5471784;26;19932;-72
2024/04/20 16:12:21;;;;;;;;;;;;;;;;;;5477438;26;21058;-71
2024/04/20 16:14:50;;;;;;;;;;;;;;;;;;5468046;26;19928;-72
2024/04/20 16:17:18;;;;;;;;;;;;;;;;;;5476443;26;19928;-72
2024/04/20 16:19:47;;;;;;;;;;;;;;;;;;5479574;26;19935;-72
2024/04/20 16:22:16;;;;;;;;;;;;;;;;;;5477103;26;20295;-71
2024/04/20 16:24:45;;;;;;;;;;;;;;;;;;5477470;26;20279;-71
2024/04/20 16:27:13;;;;;;;;;;;;;;;;;;5470833;26;19935;-71
2024/04/20 16:29:42;;;;;;;;;;;;;;;;;;5468694;26;20272;-70
2024/04/20 16:32:11;;;;;;;;;;;;;;;;;;5474545;26;19931;-70
2024/04/20 16:34:39;;;;;;;;;;;;;;;;;;5473700;26;20408;-70
2024/04/20 16:37:08;;;;;;;;;;;;;;;;;;5463843;26;19928;-71
2024/04/20 16:39:37;;;;;;;;;;;;;;;;;;5466432;26;19932;-69
2024/04/20 16:42:05;;;;;;;;;;;;;;;;;;5462649;26;20358;-70
2024/04/20 16:44:34;;;;;;;;;;;;;;;;;;5472293;26;20450;-70
2024/04/20 16:47:03;;;;;;;;;;;;;;;;;;5478275;26;19939;-70
2024/04/20 16:49:32;;;;;;;;;;;;;;;;;;5478685;26;20232;-70
2024/04/20 16:51:58;;;;;;;;;;;;;;;;;;5479505;26;20298;-70
2024/04/20 16:54:26;;;;;;;;;;;;;;;;;;5455237;26;19935;-69
2024/04/20 16:56:53;;;;;;;;;;;;;;;;;;5459284;26;19932;-71
2024/04/20 16:59:21;;;;;;;;;;;;;;;;;;5464002;26;20023;-70